createdAt,value
2022-10-14T00:01:43.024Z,17.73
2022-10-14T00:04:11.404Z,19.67
2022-10-14T00:06:40.464Z,20.47
2022-10-14T00:09:09.086Z,19.47
2022-10-14T00:11:37.873Z,18.00
2022-10-14T00:14:08.385Z,15.30
2022-10-14T00:16:42.476Z,21.67
2022-10-14T00:19:13.454Z,17.77
2022-10-14T00:21:44.269Z,18.47
2022-10-14T00:24:17.185Z,17.83
2022-10-14T00:26:45.222Z,20.17
2022-10-14T00:29:15.005Z,15.93
2022-10-14T00:31:42.874Z,21.17
2022-10-14T00:34:13.688Z,17.33
2022-10-14T00:36:41.495Z,17.70
2022-10-14T00:39:09.451Z,18.90
2022-10-14T00:41:39.941Z,20.03
2022-10-14T00:44:09.303Z,17.37
2022-10-14T00:46:39.601Z,20.93
2022-10-14T00:49:34.476Z,19.17
2022-10-14T00:52:05.243Z,18.90
2022-10-14T00:54:35.358Z,20.70
2022-10-14T00:57:03.445Z,18.97
2022-10-14T00:59:32.274Z,23.80
2022-10-14T01:02:01.442Z,21.60
2022-10-14T01:04:31.760Z,19.23
2022-10-14T01:07:06.116Z,29.13
2022-10-14T01:09:37.784Z,20.57
2022-10-14T01:12:30.209Z,23.73
2022-10-14T01:15:05.578Z,22.67
2022-10-14T01:17:49.390Z,27.33
2022-10-14T01:20:24.368Z,28.13
2022-10-14T01:23:00.347Z,27.97
2022-10-14T01:25:35.097Z,23.00
2022-10-14T01:28:17.681Z,26.53
2022-10-14T01:30:48.923Z,32.43
2022-10-14T01:33:20.379Z,22.90
2022-10-14T01:35:50.405Z,21.13
2022-10-14T01:38:30.175Z,21.60
2022-10-14T01:41:06.624Z,22.77
2022-10-14T01:43:34.458Z,21.23
2022-10-14T01:46:03.872Z,27.10
2022-10-14T01:48:33.471Z,20.10
2022-10-14T01:51:02.080Z,23.43
2022-10-14T01:53:34.683Z,29.33
2022-10-14T01:56:02.959Z,27.60
2022-10-14T01:58:31.759Z,21.77
2022-10-14T02:00:59.006Z,31.40
2022-10-14T02:03:26.169Z,24.87
2022-10-14T02:05:59.692Z,33.27
2022-10-14T02:08:45.423Z,29.10
2022-10-14T02:11:19.533Z,26.47
2022-10-14T02:13:46.672Z,25.87
2022-10-14T02:16:26.429Z,28.97
2022-10-14T02:18:59.284Z,22.53
2022-10-14T02:21:30.777Z,28.57
2022-10-14T02:24:01.047Z,25.77
2022-10-14T02:26:28.785Z,21.37
2022-10-14T02:28:58.027Z,28.93
2022-10-14T02:31:25.697Z,24.00
2022-10-14T02:33:54.672Z,25.30
2022-10-14T02:36:23.838Z,20.63
2022-10-14T02:38:51.199Z,19.07
2022-10-14T02:41:19.970Z,21.53
2022-10-14T02:43:47.417Z,25.80
2022-10-14T02:46:14.608Z,20.53
2022-10-14T02:48:41.811Z,22.00
2022-10-14T02:51:08.991Z,21.90
2022-10-14T02:53:36.185Z,21.07
2022-10-14T02:56:03.324Z,21.37
2022-10-14T02:58:30.489Z,26.20
2022-10-14T03:00:57.647Z,19.27
2022-10-14T03:03:24.844Z,21.87
2022-10-14T03:05:51.990Z,21.37
2022-10-14T03:08:20.196Z,32.10
2022-10-14T03:10:48.044Z,27.20
2022-10-14T03:13:16.835Z,25.33
2022-10-14T03:15:43.995Z,26.70
2022-10-14T03:18:11.223Z,32.60
2022-10-14T03:20:38.495Z,24.53
2022-10-14T03:23:05.711Z,38.10
2022-10-14T03:25:32.936Z,29.90
2022-10-14T03:28:00.065Z,29.20
2022-10-14T03:30:27.237Z,30.07
2022-10-14T03:32:54.794Z,28.50
2022-10-14T03:35:22.270Z,28.93
2022-10-14T03:37:49.390Z,27.90
2022-10-14T03:40:16.515Z,25.67
2022-10-14T03:42:43.649Z,26.63
2022-10-14T03:45:11.160Z,26.73
2022-10-14T03:47:38.333Z,26.73
2022-10-14T03:50:06.073Z,25.33
2022-10-14T03:52:33.265Z,23.70
2022-10-14T03:55:00.444Z,23.13
2022-10-14T03:57:27.576Z,31.47
2022-10-14T03:59:54.732Z,31.43
2022-10-14T04:02:22.074Z,26.17
2022-10-14T04:04:49.406Z,26.10
2022-10-14T04:07:16.566Z,28.33
2022-10-14T04:09:43.771Z,29.27
2022-10-14T04:12:10.926Z,28.67
2022-10-14T04:14:38.055Z,25.00
2022-10-14T04:17:05.268Z,23.17
2022-10-14T04:19:32.666Z,28.63
2022-10-14T04:21:59.811Z,27.07
2022-10-14T04:24:26.945Z,28.10
2022-10-14T04:26:54.180Z,27.90
2022-10-14T04:29:21.323Z,28.10
2022-10-14T04:31:48.553Z,23.77
2022-10-14T04:34:15.732Z,32.70
2022-10-14T04:36:43.033Z,24.67
2022-10-14T04:39:10.974Z,26.63
2022-10-14T04:41:38.149Z,25.17
2022-10-14T04:44:05.453Z,30.63
2022-10-14T04:46:32.638Z,28.33
2022-10-14T04:48:59.832Z,27.87
2022-10-14T04:51:27.021Z,29.33
2022-10-14T04:53:54.209Z,21.87
2022-10-14T04:56:21.427Z,29.57
2022-10-14T04:58:48.626Z,26.80
2022-10-14T05:01:15.925Z,28.97
2022-10-14T05:03:43.083Z,30.00
2022-10-14T05:06:10.458Z,23.33
2022-10-14T05:08:37.783Z,24.53
2022-10-14T05:11:04.960Z,23.27
2022-10-14T05:13:32.090Z,26.27
2022-10-14T05:15:59.283Z,28.67
2022-10-14T05:18:27.334Z,21.30
2022-10-14T05:20:54.542Z,25.13
2022-10-14T05:23:21.677Z,26.17
2022-10-14T05:25:48.809Z,23.23
2022-10-14T05:28:15.995Z,23.40
2022-10-14T05:30:43.348Z,21.90
2022-10-14T05:33:10.774Z,24.37
2022-10-14T05:35:57.698Z,23.70
2022-10-14T05:38:25.130Z,20.23
2022-10-14T05:40:56.284Z,27.40
2022-10-14T05:43:32.110Z,20.33
2022-10-14T05:46:00.252Z,20.03
2022-10-14T05:48:27.794Z,20.23
2022-10-14T05:50:54.959Z,21.87
2022-10-14T05:53:22.106Z,17.73
2022-10-14T05:55:49.270Z,19.80
2022-10-14T05:58:16.391Z,17.87
2022-10-14T06:00:46.760Z,17.97
2022-10-14T06:03:14.068Z,20.90
2022-10-14T06:05:41.321Z,19.97
2022-10-14T06:08:08.970Z,21.67
2022-10-14T06:10:36.595Z,20.83
2022-10-14T06:13:03.749Z,20.00
2022-10-14T06:15:30.959Z,17.13
2022-10-14T06:17:58.123Z,19.17
2022-10-14T06:20:25.328Z,18.80
2022-10-14T06:22:52.568Z,18.90
2022-10-14T06:25:19.886Z,18.13
2022-10-14T06:27:47.012Z,21.77
2022-10-14T06:30:14.532Z,18.33
2022-10-14T06:32:41.696Z,18.17
2022-10-14T06:35:09.590Z,17.07
2022-10-14T06:37:36.899Z,20.03
2022-10-14T06:40:04.271Z,17.27
2022-10-14T06:42:31.889Z,15.20
2022-10-14T06:44:59.097Z,16.83
2022-10-14T06:47:26.279Z,31.57
2022-10-14T06:49:53.508Z,18.43
2022-10-14T06:52:20.852Z,18.90
2022-10-14T06:54:48.581Z,16.20
2022-10-14T06:57:16.936Z,19.47
2022-10-14T06:59:44.639Z,14.17
2022-10-14T07:02:11.858Z,14.10
2022-10-14T07:04:42.505Z,14.10
2022-10-14T07:07:09.852Z,14.40
2022-10-14T07:09:37.325Z,15.77
2022-10-14T07:12:04.685Z,13.13
2022-10-14T07:14:31.807Z,14.20
2022-10-14T07:16:59.041Z,16.67
2022-10-14T07:19:26.223Z,14.53
2022-10-14T07:21:53.417Z,11.87
2022-10-14T07:24:20.685Z,14.93
2022-10-14T07:26:47.957Z,13.33
2022-10-14T07:29:15.094Z,14.63
2022-10-14T07:31:42.235Z,11.47
2022-10-14T07:34:09.478Z,12.97
2022-10-14T07:36:37.034Z,13.27
2022-10-14T07:39:05.867Z,11.87
2022-10-14T07:41:33.606Z,10.77
2022-10-14T07:44:02.786Z,10.10
2022-10-14T07:46:32.292Z,10.07
2022-10-14T07:49:01.049Z,10.97
2022-10-14T07:51:29.250Z,10.60
2022-10-14T07:53:57.498Z,10.50
2022-10-14T07:56:25.165Z,10.07
2022-10-14T07:58:52.676Z,9.77
2022-10-14T08:01:20.257Z,9.37
2022-10-14T08:03:48.314Z,14.33
2022-10-14T08:06:15.676Z,10.20
2022-10-14T08:08:44.091Z,10.87
2022-10-14T08:11:12.837Z,11.20
2022-10-14T08:13:43.525Z,11.10
2022-10-14T08:16:15.161Z,9.60
2022-10-14T08:18:45.911Z,18.23
2022-10-14T08:21:16.320Z,9.73
2022-10-14T08:23:47.112Z,9.07
2022-10-14T08:26:37.344Z,11.93
2022-10-14T08:29:15.982Z,9.40
2022-10-14T08:31:53.788Z,9.88
2022-10-14T08:34:28.070Z,9.13
2022-10-14T08:37:03.434Z,7.93
2022-10-14T08:39:32.329Z,8.83
2022-10-14T08:42:20.365Z,8.32
2022-10-14T08:45:11.185Z,8.90
2022-10-14T08:47:52.188Z,8.10
2022-10-14T08:50:23.979Z,7.85
2022-10-14T08:52:57.389Z,6.97
2022-10-14T08:55:35.084Z,6.82
2022-10-14T08:58:10.465Z,6.55
2022-10-14T09:00:42.513Z,6.72
2022-10-14T09:03:23.172Z,9.88
2022-10-14T09:06:03.772Z,7.43
2022-10-14T09:08:38.422Z,5.80
2022-10-14T09:11:07.397Z,6.10
2022-10-14T09:13:39.396Z,6.40
2022-10-14T09:16:10.949Z,4.57
2022-10-14T09:18:45.848Z,4.88
2022-10-14T09:21:33.770Z,4.75
2022-10-14T09:24:09.495Z,4.72
2022-10-14T09:26:40.593Z,5.65
2022-10-14T09:29:17.695Z,4.55
2022-10-14T09:31:45.107Z,4.88
2022-10-14T09:34:20.424Z,4.47
2022-10-14T09:36:49.262Z,4.57
2022-10-14T09:39:16.831Z,4.15
2022-10-14T09:41:45.472Z,3.85
2022-10-14T09:44:19.930Z,10.57
2022-10-14T09:46:48.671Z,4.20
2022-10-14T09:49:48.169Z,3.72
2022-10-14T09:52:30.424Z,3.95
2022-10-14T09:54:59.354Z,11.60
2022-10-14T09:57:26.877Z,4.57
2022-10-14T09:59:59.272Z,4.13
2022-10-14T10:02:47.256Z,4.97
2022-10-14T10:05:25.902Z,3.95
2022-10-14T10:08:04.701Z,4.20
2022-10-14T10:10:32.055Z,4.68
2022-10-14T10:12:59.294Z,3.95
2022-10-14T10:15:26.612Z,4.60
2022-10-14T10:17:54.225Z,5.97
2022-10-14T10:20:28.625Z,4.13
2022-10-14T10:22:57.076Z,4.22
2022-10-14T10:25:26.620Z,3.70
2022-10-14T10:27:55.270Z,5.90
2022-10-14T10:30:25.218Z,4.10
2022-10-14T10:32:52.365Z,4.03
2022-10-14T10:35:31.978Z,3.83
2022-10-14T10:38:06.685Z,5.78
2022-10-14T10:40:49.101Z,4.30
2022-10-14T10:43:36.416Z,4.45
2022-10-14T10:46:22.234Z,3.63
2022-10-14T10:49:01.965Z,4.85
2022-10-14T10:51:34.584Z,3.67
2022-10-14T10:54:22.037Z,5.50
2022-10-14T10:56:54.394Z,3.97
2022-10-14T10:59:30.734Z,4.10
2022-10-14T11:01:59.992Z,4.28
2022-10-14T11:04:33.160Z,5.00
2022-10-14T11:07:25.350Z,4.20
2022-10-14T11:10:13.816Z,4.20
2022-10-14T11:12:53.448Z,3.78
2022-10-14T11:15:26.593Z,6.80
2022-10-14T11:18:12.714Z,5.22
2022-10-14T11:20:58.966Z,9.65
2022-10-14T11:23:28.874Z,5.00
2022-10-14T11:25:59.359Z,5.55
2022-10-14T11:28:33.202Z,5.47
2022-10-14T11:31:13.426Z,7.28
2022-10-14T11:33:54.146Z,5.80
2022-10-14T11:36:41.009Z,6.38
2022-10-14T11:39:20.785Z,10.30
2022-10-14T11:42:14.230Z,7.57
2022-10-14T11:44:43.258Z,9.20
2022-10-14T11:47:14.091Z,8.82
2022-10-14T11:49:47.169Z,10.27
2022-10-14T11:52:20.763Z,8.65
2022-10-14T11:54:49.230Z,8.13
2022-10-14T11:57:16.378Z,8.25
2022-10-14T11:59:43.524Z,9.00
2022-10-14T12:02:10.696Z,9.20
2022-10-14T12:04:41.649Z,12.93
2022-10-14T12:07:17.632Z,10.10
2022-10-14T12:09:55.826Z,9.65
2022-10-14T12:12:27.797Z,9.10
2022-10-14T12:15:08.262Z,9.60
2022-10-14T12:17:43.220Z,9.07
2022-10-14T12:20:16.198Z,10.40
2022-10-14T12:22:43.955Z,10.02
2022-10-14T12:25:17.265Z,12.90
2022-10-14T12:27:44.594Z,9.73
2022-10-14T12:30:32.175Z,12.50
2022-10-14T12:33:01.480Z,10.38
2022-10-14T12:35:47.173Z,12.30
2022-10-14T12:38:14.690Z,12.68
2022-10-14T12:40:41.991Z,10.15
2022-10-14T12:43:16.760Z,10.98
2022-10-14T12:46:06.959Z,10.25
2022-10-14T12:48:35.630Z,11.02
2022-10-14T12:51:10.945Z,8.82
2022-10-14T12:53:39.840Z,10.63
2022-10-14T12:56:08.217Z,10.13
2022-10-14T12:58:35.350Z,11.60
2022-10-14T13:01:07.762Z,8.75
2022-10-14T13:03:37.892Z,10.73
2022-10-14T13:06:23.474Z,11.40
2022-10-14T13:09:09.493Z,12.60
2022-10-14T13:11:38.586Z,11.35
2022-10-14T13:14:21.835Z,12.07
2022-10-14T13:16:51.904Z,10.38
2022-10-14T13:19:34.203Z,11.00
2022-10-14T13:22:05.943Z,10.77
2022-10-14T13:24:35.400Z,12.35
2022-10-14T13:27:07.910Z,10.07
2022-10-14T13:29:35.154Z,11.60
2022-10-14T13:32:06.950Z,11.48
2022-10-14T13:34:34.903Z,17.42
2022-10-14T13:37:08.912Z,13.18
2022-10-14T13:39:36.153Z,11.82
2022-10-14T13:42:03.590Z,12.82
2022-10-14T13:44:30.783Z,12.95
2022-10-14T13:46:57.969Z,11.40
2022-10-14T13:49:31.232Z,11.98
2022-10-14T13:52:04.470Z,18.17
2022-10-14T13:54:32.409Z,12.10
2022-10-14T13:57:35.019Z,14.73
2022-10-14T14:00:27.795Z,15.60
2022-10-14T14:02:34.707Z,15.32
2022-10-14T14:05:02.018Z,21.27
2022-10-14T14:07:59.685Z,18.17
2022-10-14T14:10:24.544Z,22.42
2022-10-14T14:12:54.823Z,20.10
2022-10-14T14:15:21.945Z,19.80
2022-10-14T14:17:49.172Z,21.45
2022-10-14T14:20:20.262Z,23.73
2022-10-14T14:22:47.496Z,19.55
2022-10-14T14:25:33.962Z,20.13
2022-10-14T14:28:02.907Z,20.45
2022-10-14T14:30:35.394Z,19.10
2022-10-14T14:33:08.477Z,27.92
2022-10-14T14:35:35.656Z,28.02
2022-10-14T14:38:03.380Z,22.73
2022-10-14T14:40:31.711Z,24.52
2022-10-14T14:42:59.877Z,20.95
2022-10-14T14:45:31.341Z,27.85
2022-10-14T14:47:59.366Z,24.45
2022-10-14T14:50:33.156Z,22.90
2022-10-14T14:53:20.553Z,22.70
2022-10-14T14:56:00.428Z,26.95
2022-10-14T14:58:32.925Z,29.38
2022-10-14T15:01:00.182Z,23.75
2022-10-14T15:03:28.675Z,22.85
2022-10-14T15:06:06.163Z,22.75
2022-10-14T15:08:37.916Z,21.75
2022-10-14T15:11:06.225Z,24.08
2022-10-14T15:13:54.759Z,25.00
2022-10-14T15:16:34.783Z,22.75
2022-10-14T15:19:23.094Z,22.73
2022-10-14T15:22:09.672Z,36.88
2022-10-14T15:24:56.573Z,21.15
2022-10-14T15:27:35.992Z,18.75
2022-10-14T15:30:18.204Z,20.15
2022-10-14T15:32:45.416Z,19.42
2022-10-14T15:35:17.927Z,17.63
2022-10-14T15:37:47.875Z,17.65
2022-10-14T15:40:16.632Z,18.92
2022-10-14T15:42:43.793Z,17.15
2022-10-14T15:45:11.109Z,16.23
2022-10-14T15:47:38.462Z,22.90
2022-10-14T15:50:06.907Z,20.73
2022-10-14T15:52:34.152Z,16.92
2022-10-14T15:55:01.360Z,14.52
2022-10-14T15:57:28.522Z,19.15
2022-10-14T15:59:55.674Z,15.70
2022-10-14T16:02:25.856Z,16.00
2022-10-14T16:05:18.841Z,17.65
2022-10-14T16:07:41.363Z,16.08
2022-10-14T16:10:09.200Z,21.30
2022-10-14T16:12:36.477Z,42.95
2022-10-14T16:17:32.018Z,16.35
2022-10-14T16:19:59.239Z,18.08
2022-10-14T16:22:26.482Z,28.25
2022-10-14T16:24:53.685Z,19.00
2022-10-14T16:27:21.221Z,21.88
2022-10-14T16:29:48.643Z,19.50
2022-10-14T16:32:15.888Z,16.20
2022-10-14T16:34:43.109Z,13.95
2022-10-14T16:37:10.428Z,27.55
2022-10-14T16:39:38.901Z,14.00
2022-10-14T16:42:06.596Z,17.98
2022-10-14T16:44:34.023Z,13.25
2022-10-14T16:47:16.714Z,11.82
2022-10-14T16:49:44.951Z,15.93
2022-10-14T16:52:13.264Z,13.07
2022-10-14T16:54:40.720Z,14.70
2022-10-14T16:57:08.268Z,12.50
2022-10-14T16:59:35.599Z,15.38
2022-10-14T17:02:02.887Z,15.95
2022-10-14T17:04:30.192Z,16.58
2022-10-14T17:06:57.418Z,16.55
2022-10-14T17:11:52.000Z,13.25
2022-10-14T17:14:23.053Z,12.00
2022-10-14T17:16:52.372Z,15.13
2022-10-14T17:19:20.057Z,12.70
2022-10-14T17:21:48.749Z,14.65
2022-10-14T17:24:17.150Z,13.00
2022-10-14T17:26:47.764Z,14.48
2022-10-14T17:29:15.433Z,10.63
2022-10-14T17:31:42.612Z,11.90
2022-10-14T17:34:10.380Z,11.60
2022-10-14T17:36:37.569Z,8.10
2022-10-14T17:39:05.153Z,7.97
2022-10-14T17:41:32.743Z,8.00
2022-10-14T17:44:01.487Z,7.50
2022-10-14T17:46:29.716Z,8.00
2022-10-14T17:48:58.677Z,9.18
2022-10-14T17:51:26.698Z,8.63
2022-10-14T17:53:58.443Z,8.95
2022-10-14T17:56:26.044Z,11.25
2022-10-14T17:58:54.698Z,15.95
2022-10-14T18:01:36.685Z,12.68
2022-10-14T18:04:09.097Z,10.88
2022-10-14T18:06:37.340Z,13.77
2022-10-14T18:09:05.521Z,17.23
2022-10-14T18:11:56.228Z,13.18
2022-10-14T18:14:22.377Z,12.00
2022-10-14T18:16:49.490Z,11.48
2022-10-14T18:19:16.840Z,13.13
2022-10-14T18:21:44.888Z,12.15
2022-10-14T18:24:12.668Z,13.18
2022-10-14T18:26:41.022Z,51.78
2022-10-14T18:29:08.961Z,16.63
2022-10-14T18:31:36.406Z,15.93
2022-10-14T18:34:03.698Z,16.65
2022-10-14T18:36:33.089Z,14.18
2022-10-14T18:39:01.557Z,16.38
2022-10-14T18:41:31.595Z,16.15
2022-10-14T18:43:59.868Z,19.13
2022-10-14T18:46:33.682Z,14.80
2022-10-14T18:49:01.552Z,15.10
2022-10-14T18:51:29.965Z,13.05
2022-10-14T18:53:59.001Z,17.85
2022-10-14T18:56:27.938Z,17.95
2022-10-14T18:59:00.177Z,16.60
2022-10-14T19:01:27.494Z,20.55
2022-10-14T19:03:55.070Z,16.02
2022-10-14T19:06:22.998Z,20.20
2022-10-14T19:08:50.456Z,20.45
2022-10-14T19:11:21.969Z,15.75
2022-10-14T19:13:50.176Z,17.20
2022-10-14T19:16:21.669Z,15.98
2022-10-14T19:18:52.664Z,15.75
2022-10-14T19:21:22.187Z,15.18
2022-10-14T19:23:50.139Z,23.23
2022-10-14T19:26:19.026Z,20.48
2022-10-14T19:28:47.541Z,16.83
2022-10-14T19:31:18.954Z,17.83
2022-10-14T19:33:46.420Z,16.98
2022-10-14T19:36:14.740Z,15.85
2022-10-14T19:38:45.426Z,20.63
2022-10-14T19:41:12.887Z,17.92
2022-10-14T19:43:40.110Z,17.65
2022-10-14T19:46:08.371Z,15.48
2022-10-14T19:48:35.724Z,18.77
2022-10-14T19:51:06.292Z,21.38
2022-10-14T19:53:34.460Z,17.52
2022-10-14T19:56:09.276Z,15.73
2022-10-14T19:58:39.655Z,17.30
2022-10-14T20:01:16.517Z,17.35
2022-10-14T20:03:44.106Z,19.48
2022-10-14T20:06:12.381Z,22.00
2022-10-14T20:08:39.980Z,21.88
2022-10-14T20:11:08.517Z,16.50
2022-10-14T20:13:37.622Z,19.60
2022-10-14T20:16:05.800Z,17.58
2022-10-14T20:18:33.532Z,19.02
2022-10-14T20:21:07.874Z,16.83
2022-10-14T20:23:39.695Z,19.58
2022-10-14T20:26:08.119Z,23.27
2022-10-14T20:28:36.159Z,15.65
2022-10-14T20:31:04.021Z,18.58
2022-10-14T20:33:32.047Z,19.88
2022-10-14T20:36:00.178Z,20.10
2022-10-14T20:38:27.452Z,16.20
2022-10-14T20:40:54.668Z,17.27
2022-10-14T20:43:22.138Z,16.45
2022-10-14T20:45:49.342Z,25.75
2022-10-14T20:48:16.523Z,15.80
2022-10-14T20:50:46.363Z,20.52
2022-10-14T20:53:13.747Z,15.35
2022-10-14T20:55:40.950Z,18.17
2022-10-14T20:58:08.187Z,26.92
2022-10-14T21:00:35.368Z,29.02
2022-10-14T21:03:02.494Z,21.00
2022-10-14T21:05:29.635Z,15.05
2022-10-14T21:07:56.842Z,20.65
2022-10-14T21:10:24.386Z,40.60
2022-10-14T21:12:52.075Z,15.02
2022-10-14T21:15:19.209Z,17.77
2022-10-14T21:17:50.097Z,16.50
2022-10-14T21:20:17.302Z,15.07
2022-10-14T21:22:44.766Z,19.88
2022-10-14T21:25:12.019Z,17.00
2022-10-14T21:27:39.324Z,16.27
2022-10-14T21:30:06.926Z,15.73
2022-10-14T21:32:34.155Z,18.63
2022-10-14T21:35:01.313Z,16.98
2022-10-14T21:37:28.480Z,20.75
2022-10-14T21:39:55.702Z,19.02
2022-10-14T21:42:23.133Z,16.45
2022-10-14T21:44:50.564Z,17.80
2022-10-14T21:47:17.740Z,14.50
2022-10-14T21:49:44.859Z,14.57
2022-10-14T21:52:12.067Z,14.77
2022-10-14T21:54:39.217Z,15.38
2022-10-14T21:57:06.525Z,15.77
2022-10-14T21:59:34.316Z,14.70
2022-10-14T22:02:04.257Z,19.33
2022-10-14T22:04:34.512Z,17.70
2022-10-14T22:07:05.552Z,13.93
2022-10-14T22:09:32.813Z,22.00
2022-10-14T22:12:00.742Z,15.85
2022-10-14T22:14:27.916Z,15.15
2022-10-14T22:17:24.007Z,22.92
2022-10-14T22:19:52.031Z,45.75
2022-10-14T22:22:19.220Z,18.90
2022-10-14T22:24:50.528Z,19.45
2022-10-14T22:27:20.094Z,21.05
2022-10-14T22:29:47.484Z,20.63
2022-10-14T22:32:15.387Z,15.20
2022-10-14T22:34:44.809Z,23.33
2022-10-14T22:37:12.339Z,16.98
2022-10-14T22:39:39.480Z,17.35
2022-10-14T22:42:06.654Z,18.65
2022-10-14T22:44:33.859Z,17.33
2022-10-14T22:47:01.188Z,16.38
2022-10-14T22:49:29.802Z,31.83
2022-10-14T22:51:56.971Z,15.05
2022-10-14T22:54:24.156Z,18.15
2022-10-14T22:56:51.358Z,16.67
2022-10-14T22:59:18.563Z,16.27
2022-10-14T23:01:45.747Z,16.95
2022-10-14T23:04:12.999Z,16.35
2022-10-14T23:06:40.378Z,13.48
2022-10-14T23:09:07.523Z,15.00
2022-10-14T23:11:34.781Z,18.33
2022-10-14T23:14:08.698Z,35.55
2022-10-14T23:16:36.425Z,14.98
2022-10-14T23:19:03.590Z,17.02
2022-10-14T23:21:31.735Z,15.20
2022-10-14T23:24:00.132Z,25.70
2022-10-14T23:26:28.668Z,19.63
2022-10-14T23:28:57.480Z,22.45
2022-10-14T23:31:26.395Z,16.33
2022-10-14T23:33:53.815Z,18.45
2022-10-14T23:36:23.252Z,17.60
2022-10-14T23:38:52.532Z,19.17
2022-10-14T23:41:22.030Z,18.52
2022-10-14T23:43:50.133Z,17.85
2022-10-14T23:46:17.385Z,28.08
2022-10-14T23:48:51.477Z,18.88
2022-10-14T23:51:28.261Z,18.88
2022-10-14T23:53:55.426Z,21.90
2022-10-14T23:56:22.631Z,17.58
2022-10-14T23:58:50.071Z,18.05
